Have a Safe July 4th! 

Flight Track Log - Related Links

Times and Time Zones

All times are in EDT time to prevent confusion due to time zone crossing. See the N973SD flight status page for this flight to view local times or setup timezone preferences in your user account.

Time Position Orientation Groundspeed Altitude Reporting Facility
EDT Latitude Longitude Course Direction KTS MPH feet Rate Location/Type
Sun 02:33:35 PM 43.1167 -78.7000 90° East 170 196 4,200  Level Buffalo TRACON
Sun 02:34:29 PM 43.1167 -78.6333 90° East 169 194 4,800 650 Climbing Buffalo TRACON
Sun 02:35:35 PM 43.1000 -78.5833 115° Southeast 146 168 5,500 350 Climbing Buffalo TRACON
Sun 02:36:29 PM 43.0667 -78.5333 132° Southeast 168 193 5,500  Level Buffalo TRACON
Sun 02:37:29 PM 43.0667 -78.4833 90° East 193 222 5,500  Level Buffalo TRACON
Sun 02:38:10 PM 43.0656 -78.4378 92° East 189 217 5,500  Level Cleveland Center
Sun 02:39:11 PM 43.0478 -78.3786 112° Southeast 173 199 5,500 -17 Level Cleveland Center
Sun 02:44:07 PM 42.8810 -78.1320 112° Southeast 177 204 5,400 -20 Descending FlightAware ADS-B
Sun 02:44:17 PM 42.8780 -78.1260 124° Southeast 177 204 5,400  Level FlightAware ADS-B
Sun 02:44:52 PM 42.8580 -78.0990 135° Southeast 179 206 5,400  Level FlightAware ADS-B
Sun 02:45:17 PM 42.8420 -78.0750 132° Southeast 175 201 5,400  Level FlightAware ADS-B
Sun 02:45:27 PM 42.8370 -78.0680 134° Southeast 175 201 5,400  Level FlightAware ADS-B
Sun 02:45:57 PM 42.8200 -78.0430 133° Southeast 175 201 5,400  Level FlightAware ADS-B
Sun 02:46:17 PM 42.8090 -78.0270 133° Southeast 174 200 5,400  Level FlightAware ADS-B
Sun 02:46:38 PM 42.7970 -78.0120 137° Southeast 174 200 5,400  Level FlightAware ADS-B
Sun 02:47:07 PM 42.7820 -77.9890 132° Southeast 174 200 5,400  Level FlightAware ADS-B
Sun 02:47:47 PM 42.7620 -77.9600 133° Southeast 177 204 5,400  Level FlightAware ADS-B
Sun 02:48:32 PM 42.7340 -77.9220 135° Southeast 176 203 5,400  Level FlightAware ADS-B
Sun 02:49:02 PM 42.7170 -77.8960 132° Southeast 179 206 5,400  Level FlightAware ADS-B
Sun 02:49:45 PM 42.6910 -77.8590 134° Southeast 178 205 5,400  Level FlightAware ADS-B
Sun 02:50:00 PM 42.6820 -77.8470 136° Southeast 178 205 5,400  Level FlightAware ADS-B
Sun 02:50:25 PM 42.6680 -77.8270 134° Southeast 176 203 5,400  Level FlightAware ADS-B
Sun 02:50:57 PM 42.6570 -77.8110 133° Southeast 169 194 5,400  Level FlightAware ADS-B
Sun 02:51:22 PM 42.6380 -77.7840 134° Southeast 177 204 5,400  Level FlightAware ADS-B
Sun 02:51:35 PM 42.6290 -77.7720 136° Southeast 179 206 5,400  Level FlightAware ADS-B
Sun 02:52:05 PM 42.6120 -77.7480 134° Southeast 178 205 5,400  Level FlightAware ADS-B
Sun 02:52:45 PM 42.5900 -77.7170 134° Southeast 182 209 5,400  Level FlightAware ADS-B
Sun 02:53:00 PM 42.5810 -77.7040 133° Southeast 181 208 5,400  Level FlightAware ADS-B
Sun 02:53:32 PM 42.5650 -77.6810 133° Southeast 181 208 5,400 75 Level FlightAware ADS-B
Sun 02:54:20 PM 42.5356 -77.6469 133° Southeast 169 194 5,500 54 Climbing Cleveland Center
Sun 02:55:23 PM 42.4969 -77.6122 146° Southeast 199 229 5,500  Level Cleveland Center
Sun 02:57:00 PM 42.4642 -77.4943 111° Southeast  Level FlightAware Approximate
Sun 03:04:00 PM 42.2314 -77.0474 129° Southeast  Level FlightAware Approximate
Sun 03:05:00 PM 42.1951 -76.9873 129° Southeast  Level FlightAware Approximate
Sun 03:06:00 PM 42.1587 -76.9273 129° Southeast  Level FlightAware Approximate
Sun 03:07:00 PM 42.1222 -76.8673 129° Southeast  Level FlightAware Approximate
Sun 03:07:41 PM 41.9969 -77.2061 129° Southeast 192 221 5,500  Level New York Center
Sun 03:08:00 PM 42.0858 -76.8075 129° Southeast  Level FlightAware Approximate
Sun 03:08:42 PM 41.9731 -77.1481 119° Southeast 193 222 5,500  Level New York Center
Sun 03:09:00 PM 42.0493 -76.7476 129° Southeast  Level FlightAware Approximate
Sun 03:09:40 PM 41.9444 -77.0950 126° Southeast 195 224 5,500  Level New York Center
Sun 03:10:00 PM 42.0128 -76.6879 129° Southeast  Level FlightAware Approximate
Sun 03:10:40 PM 41.9181 -77.0425 124° Southeast 180 207 5,500  Level New York Center
Sun 03:11:00 PM 41.9762 -76.6282 129° Southeast  Level FlightAware Approximate
Sun 03:11:41 PM 41.8919 -76.9869 122° Southeast 172 198 5,500  Level New York Center
Sun 03:12:39 PM 41.8658 -76.9289 121° Southeast 213 245 5,500  Level New York Center
Sun 03:13:40 PM 41.8283 -76.8892 142° Southeast 189 217 5,500  Level New York Center
Sun 03:14:40 PM 41.7906 -76.8550 146° Southeast 168 193 5,500  Level New York Center
Sun 03:15:41 PM 41.7486 -76.8178 146° Southeast 179 206 5,500  Level New York Center
Sun 03:16:39 PM 41.7086 -76.7836 147° Southeast 177 204 5,500  Level New York Center
Sun 03:17:40 PM 41.6708 -76.7469 144° Southeast 182 209 5,500  Level New York Center
Sun 03:18:41 PM 41.6250 -76.7067 147° Southeast 190 219 5,500  Level New York Center
Sun 03:19:41 PM 41.5831 -76.6697 147° Southeast 185 213 5,500  Level New York Center
Sun 03:20:42 PM 41.5494 -76.6364 143° Southeast 179 206 5,500  Level New York Center
Sun 03:21:39 PM 41.5094 -76.5997 146° Southeast 179 206 5,500  Level New York Center
Sun 03:22:40 PM 41.4694 -76.5683 150° Southeast 179 206 5,500  Level New York Center
Sun 03:23:40 PM 41.4292 -76.5372 150° Southeast 179 206 5,500 -50 Level New York Center
Sun 03:24:41 PM 41.3858 -76.4894 140° Southeast 145 167 5,400 -50 Descending New York Center
Sun 03:25:40 PM 41.3497 -76.4586 147° Southeast 164 189 5,400  Level New York Center
Sun 03:26:40 PM 41.3078 -76.4192 145° Southeast 164 189 5,400  Level New York Center
Sun 03:32:24 PM 41.0860 -76.2240 145° Southeast 5,400  Level FlightAware ADS-B
Sun 03:33:47 PM 41.0280 -76.1730 146° Southeast 170 196 5,400 -135 Level FlightAware ADS-B
Sun 03:40:00 PM 40.9543 -75.5824 99° East  Level Estimated
Sun 03:41:00 PM 40.9422 -75.4876 100° East  Level Estimated
Sun 03:42:00 PM 40.9300 -75.3927 100° East  Level Estimated
Sun 03:43:00 PM 40.9177 -75.2979 100° East  Level Estimated
Sun 03:44:00 PM 40.9054 -75.2031 100° East  Level Estimated
Sun 03:45:00 PM 40.8929 -75.1084 100° East  Level Estimated
Sun 03:46:00 PM 40.8804 -75.0137 100° East  Level Estimated
Sun 03:47:00 PM 40.8678 -74.9191 100° East  Level Estimated
Sun 03:48:00 PM 40.8551 -74.8244 100° East  Level Estimated
Sun 03:49:00 PM 40.8424 -74.7298 100° East  Level Estimated
Sun 03:50:00 PM 40.8296 -74.6353 100° East  Level Estimated
Sun 03:51:00 PM 40.8167 -74.5408 100° East  Level Estimated
Sun 03:52:00 PM 40.8037 -74.4463 100° East  Level Estimated
Sun 03:53:00 PM 40.7993 -74.4149 100° East  Level Estimated
Sun 03:54:00 PM 40.7993 -74.4149 14° North  Level Estimated
Sun 03:55:00 PM 40.7993 -74.4149 14° North  Level Estimated
Sun 03:56:00 PM 40.7993 -74.4149 14° North  Level Estimated
Sun 03:57:00 PM 40.7993 -74.4149 14° North  Level Estimated
Sun 03:58:00 PM 40.7993 -74.4149 14° North  Level Estimated
Sun 03:59:00 PM 40.7993 -74.4149 14° North  Level Estimated
Sun 04:00:00 PM 40.7993 -74.4149 14° North  Level Estimated
Sun 04:01:00 PM 40.7993 -74.4149 14° North  Level Estimated
Sun 04:02:00 PM 40.7993 -74.4149 14° North  Level Estimated
Sun 04:03:00 PM 40.7993 -74.4149 14° North  Level Estimated
Sun 04:03:30 PM 40.7972 -74.4542 14° North 140 161 1,200  Level FlightAware ADS-B
Sun 04:03:38 PM 40.8010 -74.4505 36° Northeast 142 163 1,100 -261 Descending FlightAware ADS-B
Sun 04:03:53 PM 40.8090 -74.4430 35° Northeast 134 154 1,100  Level FlightAware ADS-B
Sun 04:04:05 PM 40.8149 -74.4371 37° Northeast 131 151 1,100 -207 Level FlightAware ADS-B
Sun 04:04:22 PM 40.8219 -74.4283 44° Northeast 119 137 1,000  Descending FlightAware ADS-B
Sun 04:04:31 PM 40.8251 -74.4240 45° Northeast 116 133 1,100 -74 Climbing FlightAware ADS-B
Sun 04:05:43 PM 40.8312 -74.3883 77° East 117 135 900 -286 Descending FlightAware ADS-B
Sun 04:05:55 PM 40.8264 -74.3890 186° South 88 101 700 -900 Descending FlightAware ADS-B
Sun 04:06:03 PM 40.8233 -74.3909 205° Southwest 85 98 600 -750 Descending FlightAware ADS-B

Login

Don't have an account? Register now (free) for customized features, flight alerts, and more!